CheckWX is a tool to help pilots better visualize weather data.  It is not intended as a substitute for an official pre-flight weather briefing.

19:58:14 UTC

KLCI METAR
Laconia Municipal Airport
Laconia, New Hampshire, USA
Current

22 mins ago

KLCI 251936Z AUTO 01006KT 4SM RA BR OVC013 18/17 A2990 RMK AO2 P0006
Observed
Jun-25 @ 19:36 UTC
Wind
  • 010° at 6 KTS
Visibility
4 SM
Flight Rules
MVFR
Conditions
Rain, Mist
Cloud Levels
  • Overcast at 1,300' AGL
Temperature
18°C / 64°F
Dewpoint
17°C / 63°F
Humidity
94%
Altimeter
29.9" Hg
Pressure
1012.52 hPa
Current Rain
0.06"
Previous

1 hour ago

KLCI 251856Z AUTO 05009KT 10SM -RA BKN017 OVC022 18/17 A2989 RMK AO2 SLP123 P0003 T01780167
Observed
Jun-25 @ 18:56 UTC
Wind
  • 050° at 9 KTS
Visibility
10 SM
Flight Rules
MVFR
Conditions
Light Rain
Cloud Levels
  • Broken at 1,700' AGL
  • Overcast at 2,200' AGL
Temperature
18°C / 64°F
Dewpoint
17°C / 63°F
Humidity
94%
Altimeter
29.89" Hg
Pressure
1012.22 hPa
Current Rain
0.03"
Previous

2 hours ago

KLCI 251821Z AUTO 06010G14KT 6SM -RA BR FEW012 OVC027 18/17 A2989 RMK AO2 P0002
Observed
Jun-25 @ 18:21 UTC
Wind
  • 060° at 10 KTS
  • Gusting to 14 KTS
Visibility
6 SM
Flight Rules
MVFR
Conditions
Light Rain, Mist
Cloud Levels
  • Few at 1,200' AGL
  • Overcast at 2,700' AGL
Temperature
18°C / 64°F
Dewpoint
17°C / 63°F
Humidity
94%
Altimeter
29.89" Hg
Pressure
1012.22 hPa
Current Rain
0.02"